createdAt,value
2018-03-19T00:02:13.164Z,55.20
2018-03-19T00:04:42.011Z,55.93
2018-03-19T00:07:10.896Z,55.19
2018-03-19T00:09:40.784Z,55.18
2018-03-19T00:12:09.838Z,55.78
2018-03-19T00:14:38.716Z,55.72
2018-03-19T00:17:08.219Z,55.59
2018-03-19T00:19:37.214Z,55.73
2018-03-19T00:22:06.307Z,55.74
2018-03-19T00:24:35.679Z,55.72
2018-03-19T00:27:04.647Z,55.98
2018-03-19T00:29:33.516Z,55.62
2018-03-19T00:32:03.555Z,55.34
2018-03-19T00:34:32.433Z,55.52
2018-03-19T00:37:02.044Z,56.17
2018-03-19T00:39:31.102Z,55.89
2018-03-19T00:41:59.965Z,55.63
2018-03-19T00:44:29.175Z,55.67
2018-03-19T00:46:58.076Z,55.70
2018-03-19T00:49:27.007Z,55.76
2018-03-19T00:51:57.605Z,55.79
2018-03-19T00:54:26.466Z,55.72
2018-03-19T00:56:55.570Z,55.72
2018-03-19T00:59:24.480Z,55.77
2018-03-19T01:01:54.535Z,55.51
2018-03-19T01:04:23.545Z,55.85
2018-03-19T01:06:53.161Z,55.77
2018-03-19T01:09:22.141Z,55.77
2018-03-19T01:11:51.877Z,56.18
2018-03-19T01:14:20.805Z,55.84
2018-03-19T01:16:50.328Z,55.85
2018-03-19T01:19:19.231Z,56.12
2018-03-19T01:21:48.313Z,55.99
2018-03-19T01:24:18.132Z,56.05
2018-03-19T01:26:47.422Z,56.17
2018-03-19T01:29:16.354Z,56.58
2018-03-19T01:31:45.228Z,56.23
2018-03-19T01:34:14.227Z,55.92
2018-03-19T01:36:43.452Z,56.14
2018-03-19T01:39:12.348Z,56.35
2018-03-19T01:41:41.227Z,56.41
2018-03-19T01:44:10.420Z,56.32
2018-03-19T01:46:39.354Z,56.22
2018-03-19T01:49:08.260Z,56.07
2018-03-19T01:51:37.479Z,56.24
2018-03-19T01:54:06.381Z,56.24
2018-03-19T01:56:35.279Z,56.66
2018-03-19T01:59:06.439Z,56.52
2018-03-19T02:01:35.780Z,56.43
2018-03-19T02:04:05.448Z,55.81
2018-03-19T02:06:34.368Z,55.98
2018-03-19T02:09:03.371Z,56.30
2018-03-19T02:11:32.587Z,56.47
2018-03-19T02:14:02.550Z,56.58
2018-03-19T02:16:31.485Z,56.59
2018-03-19T02:19:00.936Z,56.49
2018-03-19T02:21:29.951Z,56.49
2018-03-19T02:23:58.904Z,56.55
2018-03-19T02:26:27.915Z,56.85
2018-03-19T02:28:57.286Z,56.90
2018-03-19T02:31:26.216Z,57.02
2018-03-19T02:33:55.205Z,56.64
2018-03-19T02:36:24.093Z,56.70
2018-03-19T02:38:53.467Z,56.65
2018-03-19T02:41:22.510Z,56.92
2018-03-19T02:43:51.931Z,56.81
2018-03-19T02:46:22.294Z,56.92
2018-03-19T02:48:51.282Z,56.80
2018-03-19T02:51:20.362Z,56.98
2018-03-19T02:53:49.837Z,56.83
2018-03-19T02:56:18.782Z,56.84
2018-03-19T02:58:47.835Z,57.02
2018-03-19T03:01:18.207Z,57.11
2018-03-19T03:03:47.193Z,56.63
2018-03-19T03:06:16.092Z,56.84
2018-03-19T03:08:44.951Z,56.67
2018-03-19T03:11:14.482Z,57.11
2018-03-19T03:13:44.612Z,56.91
2018-03-19T03:16:13.504Z,57.27
2018-03-19T03:18:42.480Z,57.13
2018-03-19T03:21:11.834Z,57.25
2018-03-19T03:23:40.744Z,57.11
2018-03-19T03:26:09.680Z,56.99
2018-03-19T03:28:38.903Z,56.76
2018-03-19T03:31:07.790Z,57.00
2018-03-19T03:33:36.773Z,57.06
2018-03-19T03:36:06.740Z,57.03
2018-03-19T03:38:35.606Z,57.84
2018-03-19T03:41:04.611Z,57.44
2018-03-19T03:43:33.487Z,56.22
2018-03-19T03:46:03.130Z,56.19
2018-03-19T03:48:32.586Z,56.48
2018-03-19T03:51:01.488Z,56.23
2018-03-19T03:53:30.591Z,56.49
2018-03-19T03:55:59.492Z,56.53
2018-03-19T03:58:28.911Z,56.04
2018-03-19T04:00:57.854Z,56.37
2018-03-19T04:03:26.782Z,55.39
2018-03-19T04:05:55.690Z,55.79
2018-03-19T04:08:26.022Z,55.84
2018-03-19T04:10:54.871Z,55.43
2018-03-19T04:13:23.723Z,55.91
2018-03-19T04:15:52.571Z,55.79
2018-03-19T04:18:21.903Z,55.59
2018-03-19T04:20:50.914Z,56.11
2018-03-19T04:23:19.977Z,56.18
2018-03-19T04:25:49.349Z,55.72
2018-03-19T04:28:18.321Z,55.87
2018-03-19T04:30:47.203Z,55.31
2018-03-19T04:33:16.104Z,55.50
2018-03-19T04:35:45.388Z,55.54
2018-03-19T04:38:14.275Z,55.80
2018-03-19T04:40:44.640Z,55.76
2018-03-19T04:43:13.903Z,55.59
2018-03-19T04:45:42.803Z,55.69
2018-03-19T04:48:11.805Z,55.61
2018-03-19T04:50:41.028Z,55.81
2018-03-19T04:53:10.048Z,55.85
2018-03-19T04:55:38.935Z,55.68
2018-03-19T04:58:08.419Z,55.51
2018-03-19T05:00:40.712Z,55.60
2018-03-19T05:03:09.651Z,55.72
2018-03-19T05:05:38.567Z,56.29
2018-03-19T05:08:10.538Z,55.63
2018-03-19T05:10:39.699Z,55.41
2018-03-19T05:13:08.789Z,55.28
2018-03-19T05:15:38.854Z,55.50
2018-03-19T05:18:07.771Z,55.44
2018-03-19T05:20:36.736Z,55.53
2018-03-19T05:23:05.691Z,55.05
2018-03-19T05:25:34.987Z,56.37
2018-03-19T05:28:05.219Z,56.25
2018-03-19T05:30:34.172Z,55.42
2018-03-19T05:33:03.187Z,55.52
2018-03-19T05:35:32.335Z,54.65
2018-03-19T05:38:01.284Z,55.61
2018-03-19T05:40:30.528Z,54.57
2018-03-19T05:42:59.444Z,54.68
2018-03-19T05:45:28.366Z,54.87
2018-03-19T05:47:57.812Z,54.42
2018-03-19T05:50:26.732Z,54.67
2018-03-19T05:52:55.656Z,54.45
2018-03-19T05:55:24.860Z,54.53
2018-03-19T05:57:53.785Z,54.47
2018-03-19T06:00:22.807Z,54.49
2018-03-19T06:02:51.820Z,54.80
2018-03-19T06:05:20.779Z,54.45
2018-03-19T06:07:49.808Z,54.59
2018-03-19T06:10:19.162Z,54.88
2018-03-19T06:12:48.105Z,54.62
2018-03-19T06:15:17.424Z,54.34
2018-03-19T06:17:46.401Z,54.70
2018-03-19T06:20:15.308Z,54.19
2018-03-19T06:22:44.724Z,55.02
2018-03-19T06:25:13.715Z,54.79
2018-03-19T06:27:42.650Z,54.27
2018-03-19T06:30:12.102Z,54.42
2018-03-19T06:32:41.038Z,54.12
2018-03-19T06:35:10.146Z,54.27
2018-03-19T06:37:39.720Z,54.05
2018-03-19T06:40:08.638Z,53.71
2018-03-19T06:42:37.577Z,53.92
2018-03-19T06:45:06.507Z,54.07
2018-03-19T06:47:35.608Z,53.55
2018-03-19T06:50:05.649Z,53.90
2018-03-19T06:52:34.869Z,53.55
2018-03-19T06:55:04.267Z,53.54
2018-03-19T06:57:33.629Z,53.46
2018-03-19T07:00:03.871Z,53.98
2018-03-19T07:02:32.944Z,53.34
2018-03-19T07:05:04.195Z,53.34
2018-03-19T07:07:33.172Z,53.04
2018-03-19T07:10:04.496Z,53.00
2018-03-19T07:12:33.911Z,53.53
2018-03-19T07:15:03.131Z,53.30
2018-03-19T07:17:32.142Z,52.94
2018-03-19T07:20:03.399Z,53.24
2018-03-19T07:22:32.635Z,53.10
2018-03-19T07:25:01.622Z,53.21
2018-03-19T07:27:30.641Z,53.22
2018-03-19T07:29:59.658Z,52.86
2018-03-19T07:32:29.062Z,52.45
2018-03-19T07:34:58.080Z,52.81
2018-03-19T07:37:27.183Z,52.34
2018-03-19T07:39:57.303Z,52.22
2018-03-19T07:42:26.326Z,52.53
2018-03-19T07:44:55.320Z,51.74
2018-03-19T07:47:24.583Z,51.83
2018-03-19T07:49:53.607Z,51.97
2018-03-19T07:52:22.585Z,52.47
2018-03-19T07:54:52.064Z,51.83
2018-03-19T07:57:20.991Z,52.48
2018-03-19T07:59:50.090Z,51.92
2018-03-19T08:02:19.429Z,52.00
2018-03-19T08:04:48.342Z,51.81
2018-03-19T08:07:17.768Z,51.88
2018-03-19T08:09:46.706Z,52.01
2018-03-19T08:12:15.734Z,51.52
2018-03-19T08:14:45.284Z,52.07
2018-03-19T08:17:15.204Z,52.37
2018-03-19T08:22:10.795Z,53.57
2018-03-19T08:24:40.019Z,51.77
2018-03-19T08:27:12.083Z,51.80
2018-03-19T08:29:41.953Z,51.19
2018-03-19T08:32:11.191Z,51.30
2018-03-19T08:34:40.099Z,51.07
2018-03-19T08:37:09.369Z,51.28
2018-03-19T08:39:38.247Z,51.08
2018-03-19T08:42:07.839Z,51.27
2018-03-19T08:44:36.755Z,51.19
2018-03-19T08:47:06.608Z,50.92
2018-03-19T08:49:35.798Z,50.21
2018-03-19T08:52:05.588Z,50.59
2018-03-19T08:54:34.711Z,50.56
2018-03-19T08:57:03.992Z,51.21
2018-03-19T08:59:32.911Z,51.03
2018-03-19T09:02:05.595Z,50.90
2018-03-19T09:04:34.951Z,50.31
2018-03-19T09:07:04.400Z,50.19
2018-03-19T09:09:33.331Z,50.11
2018-03-19T09:12:03.359Z,49.79
2018-03-19T09:14:32.238Z,50.07
2018-03-19T09:17:01.369Z,49.71
2018-03-19T09:19:30.650Z,48.77
2018-03-19T09:21:59.852Z,49.17
2018-03-19T09:24:28.887Z,49.81
2018-03-19T09:26:58.359Z,49.47
2018-03-19T09:29:27.333Z,49.15
2018-03-19T09:31:56.487Z,48.85
2018-03-19T09:34:25.867Z,49.32
2018-03-19T09:36:55.613Z,48.81
2018-03-19T09:39:24.591Z,48.81
2018-03-19T09:41:53.592Z,48.58
2018-03-19T09:44:22.466Z,48.27
2018-03-19T09:46:51.564Z,48.42
2018-03-19T09:49:20.774Z,48.10
2018-03-19T09:51:49.991Z,48.13
2018-03-19T09:54:18.899Z,48.37
2018-03-19T09:56:47.942Z,47.71
2018-03-19T09:59:16.852Z,48.30
2018-03-19T10:01:45.808Z,48.52
2018-03-19T10:04:15.008Z,48.08
2018-03-19T10:06:43.960Z,49.35
2018-03-19T10:09:13.604Z,48.03
2018-03-19T10:11:42.838Z,48.09
2018-03-19T10:14:12.248Z,48.16
2018-03-19T10:16:41.274Z,48.27
2018-03-19T10:19:11.823Z,48.16
2018-03-19T10:21:40.757Z,48.54
2018-03-19T10:24:09.647Z,48.50
2018-03-19T10:26:38.926Z,49.17
2018-03-19T10:29:07.810Z,48.52
2018-03-19T10:31:38.098Z,49.04
2018-03-19T10:34:07.719Z,49.28
2018-03-19T10:36:36.626Z,48.71
2018-03-19T10:39:06.243Z,47.63
2018-03-19T10:41:35.470Z,46.88
2018-03-19T10:44:05.411Z,47.12
2018-03-19T10:46:34.392Z,47.10
2018-03-19T10:49:04.647Z,46.99
2018-03-19T10:51:35.018Z,49.26
2018-03-19T10:54:06.122Z,47.46
2018-03-19T10:56:35.316Z,47.64
2018-03-19T10:59:06.594Z,47.55
2018-03-19T11:01:39.676Z,48.08
2018-03-19T11:04:11.601Z,47.53
2018-03-19T11:06:44.658Z,47.63
2018-03-19T11:09:17.802Z,47.24
2018-03-19T11:11:46.975Z,47.05
2018-03-19T11:14:15.887Z,46.57
2018-03-19T11:16:45.137Z,47.30
2018-03-19T11:19:14.019Z,47.44
2018-03-19T11:21:42.883Z,47.05
2018-03-19T11:24:12.111Z,47.41
2018-03-19T11:26:41.114Z,47.24
2018-03-19T11:29:10.063Z,46.85
2018-03-19T11:31:39.366Z,46.69
2018-03-19T11:36:44.931Z,46.63
2018-03-19T11:39:14.154Z,45.40
2018-03-19T11:41:43.181Z,45.68
2018-03-19T11:44:12.145Z,45.04
2018-03-19T11:46:41.078Z,45.15
2018-03-19T11:49:10.173Z,44.81
2018-03-19T11:51:40.440Z,45.37
2018-03-19T11:54:09.630Z,46.49
2018-03-19T11:56:39.266Z,46.60
2018-03-19T11:59:09.528Z,44.92
2018-03-19T12:01:38.454Z,46.50
2018-03-19T12:04:07.616Z,44.69
2018-03-19T12:06:36.823Z,44.42
2018-03-19T12:09:06.321Z,44.96
2018-03-19T12:11:35.340Z,46.50
2018-03-19T12:14:05.935Z,45.25
2018-03-19T12:16:34.934Z,45.18
2018-03-19T12:19:05.877Z,45.26
2018-03-19T12:21:37.214Z,45.38
2018-03-19T12:24:07.222Z,45.12
2018-03-19T12:26:37.521Z,44.60
2018-03-19T12:29:06.842Z,44.67
2018-03-19T12:31:35.827Z,46.31
2018-03-19T12:34:05.887Z,44.12
2018-03-19T12:36:35.520Z,44.00
2018-03-19T12:39:05.185Z,43.89
2018-03-19T12:41:34.925Z,44.25
2018-03-19T12:44:06.542Z,46.27
2018-03-19T12:46:35.496Z,45.91
2018-03-19T12:49:05.311Z,42.79
2018-03-19T12:51:34.472Z,44.28
2018-03-19T12:54:05.236Z,44.92
2018-03-19T12:56:34.219Z,45.33
2018-03-19T12:59:04.440Z,45.26
2018-03-19T13:01:33.510Z,42.71
2018-03-19T13:04:03.574Z,43.07
2018-03-19T13:06:32.466Z,42.54
2018-03-19T13:09:02.211Z,42.42
2018-03-19T13:11:31.631Z,44.54
2018-03-19T13:14:00.765Z,43.52
2018-03-19T13:16:29.652Z,43.77
2018-03-19T13:18:58.851Z,42.17
2018-03-19T13:21:27.943Z,43.61
2018-03-19T13:23:58.165Z,42.40
2018-03-19T13:26:28.622Z,42.61
2018-03-19T13:28:57.605Z,42.94
2018-03-19T13:31:26.815Z,42.71
2018-03-19T13:33:57.144Z,43.44
2018-03-19T13:36:26.065Z,44.23
2018-03-19T13:38:54.978Z,44.30
2018-03-19T13:41:24.302Z,44.01
2018-03-19T13:43:53.386Z,46.53
2018-03-19T13:46:22.402Z,45.20
2018-03-19T13:48:52.267Z,43.13
2018-03-19T13:51:21.446Z,43.24
2018-03-19T13:53:50.561Z,43.31
2018-03-19T13:56:19.596Z,43.30
2018-03-19T13:58:48.592Z,45.66
2018-03-19T14:01:18.100Z,42.99
2018-03-19T14:03:47.392Z,43.73
2018-03-19T14:06:16.414Z,43.49
2018-03-19T14:08:45.357Z,45.72
2018-03-19T14:11:16.565Z,45.25
2018-03-19T14:13:45.451Z,45.63
2018-03-19T14:16:14.390Z,46.59
2018-03-19T14:18:43.966Z,46.45
2018-03-19T14:21:12.911Z,44.66
2018-03-19T14:23:42.130Z,44.07
2018-03-19T14:26:11.353Z,45.17
2018-03-19T14:28:40.232Z,45.64
2018-03-19T14:31:10.078Z,45.19
2018-03-19T14:33:39.000Z,45.85
2018-03-19T14:36:07.939Z,44.82
2018-03-19T14:38:36.941Z,47.68
2018-03-19T14:41:07.854Z,44.69
2018-03-19T14:43:36.801Z,43.83
2018-03-19T14:46:06.529Z,47.30
2018-03-19T14:48:35.719Z,44.12
2018-03-19T14:51:05.786Z,44.69
2018-03-19T14:53:34.678Z,44.60
2018-03-19T14:56:05.750Z,46.69
2018-03-19T14:58:34.705Z,46.64
2018-03-19T15:01:04.767Z,47.23
2018-03-19T15:03:34.296Z,48.18
2018-03-19T15:06:04.564Z,47.33
2018-03-19T15:08:33.585Z,48.24
2018-03-19T15:11:04.001Z,47.01
2018-03-19T15:13:33.167Z,46.05
2018-03-19T15:16:03.809Z,47.82
2018-03-19T15:18:33.200Z,47.56
2018-03-19T15:21:03.211Z,46.42
2018-03-19T15:23:32.156Z,45.64
2018-03-19T15:26:03.778Z,47.17
2018-03-19T15:28:32.737Z,47.12
2018-03-19T15:31:03.827Z,46.70
2018-03-19T15:33:32.817Z,47.84
2018-03-19T15:36:03.136Z,48.92
2018-03-19T15:38:32.115Z,48.40
2018-03-19T15:41:02.989Z,49.84
2018-03-19T15:43:31.944Z,47.10
2018-03-19T15:46:00.950Z,46.28
2018-03-19T15:48:30.293Z,45.98
2018-03-19T15:50:59.948Z,45.89
2018-03-19T15:53:30.087Z,46.08
2018-03-19T15:55:59.535Z,48.97
2018-03-19T15:58:29.516Z,48.35
2018-03-19T16:00:58.517Z,46.75
2018-03-19T16:03:27.783Z,47.75
2018-03-19T16:05:56.674Z,47.67
2018-03-19T16:08:25.708Z,46.26
2018-03-19T16:10:54.964Z,45.24
2018-03-19T16:13:23.914Z,43.15
2018-03-19T16:15:54.199Z,45.84
2018-03-19T16:18:23.615Z,48.21
2018-03-19T16:20:52.692Z,44.81
2018-03-19T16:23:21.573Z,46.86
2018-03-19T16:25:51.087Z,48.24
2018-03-19T16:28:20.111Z,46.60
2018-03-19T16:30:52.465Z,47.42
2018-03-19T16:33:21.975Z,47.43
2018-03-19T16:35:51.742Z,44.74
2018-03-19T16:38:20.721Z,45.45
2018-03-19T16:40:51.120Z,47.01
2018-03-19T16:43:20.151Z,46.99
2018-03-19T16:45:49.222Z,48.07
2018-03-19T16:48:18.851Z,47.26
2018-03-19T16:50:47.924Z,46.95
2018-03-19T16:53:16.995Z,47.49
2018-03-19T16:55:48.444Z,46.66
2018-03-19T16:58:17.707Z,47.55
2018-03-19T17:00:46.722Z,46.38
2018-03-19T17:03:16.472Z,47.57
2018-03-19T17:05:45.448Z,47.60
2018-03-19T17:08:14.563Z,44.74
2018-03-19T17:10:43.934Z,44.88
2018-03-19T17:13:13.016Z,45.00
2018-03-19T17:15:42.215Z,45.77
2018-03-19T17:18:11.813Z,46.53
2018-03-19T17:20:40.838Z,46.17
2018-03-19T17:23:13.375Z,46.60
2018-03-19T17:25:43.761Z,47.00
2018-03-19T17:28:12.860Z,47.95
2018-03-19T17:30:41.950Z,48.50
2018-03-19T17:33:11.273Z,47.02
2018-03-19T17:35:40.217Z,45.70
2018-03-19T17:38:09.328Z,45.65
2018-03-19T17:40:39.681Z,45.69
2018-03-19T17:43:09.493Z,47.10
2018-03-19T17:45:38.551Z,47.36
2018-03-19T17:48:08.679Z,47.43
2018-03-19T17:50:37.902Z,48.60
2018-03-19T17:53:06.948Z,48.40
2018-03-19T17:55:37.529Z,48.54
2018-03-19T17:58:06.615Z,49.06
2018-03-19T18:00:35.653Z,49.27
2018-03-19T18:03:06.311Z,49.78
2018-03-19T18:05:35.543Z,48.14
2018-03-19T18:08:06.102Z,49.23
2018-03-19T18:10:38.426Z,49.18
2018-03-19T18:13:07.368Z,49.22
2018-03-19T18:15:36.373Z,49.76
2018-03-19T18:18:08.615Z,49.22
2018-03-19T18:20:37.594Z,49.06
2018-03-19T18:23:07.296Z,49.04
2018-03-19T18:25:37.148Z,48.94
2018-03-19T18:28:06.589Z,48.61
2018-03-19T18:30:35.553Z,47.53
2018-03-19T18:33:06.308Z,47.19
2018-03-19T18:35:35.265Z,47.55
2018-03-19T18:41:43.915Z,47.11
2018-03-19T18:44:13.064Z,47.22
2018-03-19T18:46:42.412Z,47.08
2018-03-19T18:49:11.435Z,47.21
2018-03-19T18:51:40.564Z,48.70
2018-03-19T18:54:09.649Z,48.88
2018-03-19T18:56:38.740Z,49.23
2018-03-19T18:59:08.525Z,49.23
2018-03-19T19:01:38.175Z,49.20
2018-03-19T19:04:07.180Z,47.90
2018-03-19T19:06:36.237Z,47.47
2018-03-19T19:09:06.580Z,48.43
2018-03-19T19:11:36.235Z,48.26
2018-03-19T19:14:07.682Z,48.16
2018-03-19T19:16:39.545Z,47.90
2018-03-19T19:19:08.544Z,48.22
2018-03-19T19:21:37.423Z,48.99
2018-03-19T19:24:07.210Z,47.93
2018-03-19T19:26:37.225Z,47.83
2018-03-19T19:29:06.385Z,48.86
2018-03-19T19:31:36.242Z,48.07
2018-03-19T19:34:06.550Z,47.77
2018-03-19T19:36:35.573Z,49.12
2018-03-19T19:39:06.270Z,49.88
2018-03-19T19:41:35.310Z,49.68
2018-03-19T19:44:05.666Z,50.28
2018-03-19T19:46:34.964Z,49.18
2018-03-19T19:49:05.011Z,48.81
2018-03-19T19:51:33.876Z,48.63
2018-03-19T19:54:04.705Z,48.56
2018-03-19T19:56:33.602Z,48.14
2018-03-19T19:59:04.528Z,47.92
2018-03-19T20:01:33.726Z,49.20
2018-03-19T20:04:05.605Z,48.27
2018-03-19T20:06:34.623Z,49.07
2018-03-19T20:09:06.483Z,49.59
2018-03-19T20:11:35.710Z,48.13
2018-03-19T20:14:05.773Z,48.81
2018-03-19T20:16:34.951Z,49.53
2018-03-19T20:19:05.068Z,49.72
2018-03-19T20:21:34.084Z,49.02
2018-03-19T20:24:04.532Z,48.98
2018-03-19T20:26:33.467Z,49.62
2018-03-19T20:29:02.450Z,49.40
2018-03-19T20:31:31.556Z,49.97
2018-03-19T20:34:00.685Z,50.17
2018-03-19T20:36:29.990Z,49.48
2018-03-19T20:39:00.362Z,49.33
2018-03-19T20:41:29.395Z,50.34
2018-03-19T20:43:58.758Z,49.98
2018-03-19T20:46:27.721Z,49.87
2018-03-19T20:48:56.615Z,49.80
2018-03-19T20:51:26.075Z,49.84
2018-03-19T20:53:55.463Z,50.27
2018-03-19T20:56:24.338Z,51.12
2018-03-19T20:58:53.419Z,51.50
2018-03-19T21:01:22.552Z,50.64
2018-03-19T21:03:51.504Z,51.34
2018-03-19T21:06:21.907Z,51.61
2018-03-19T21:08:50.949Z,52.02
2018-03-19T21:11:19.852Z,51.92
2018-03-19T21:13:48.715Z,52.17
2018-03-19T21:16:17.612Z,52.37
2018-03-19T21:18:46.809Z,52.43
2018-03-19T21:21:15.753Z,52.22
2018-03-19T21:23:44.621Z,52.33
2018-03-19T21:26:13.906Z,52.45
2018-03-19T21:28:42.805Z,52.44
2018-03-19T21:31:11.747Z,52.08
2018-03-19T21:33:41.486Z,51.65
2018-03-19T21:36:10.510Z,52.14
2018-03-19T21:38:39.378Z,51.98
2018-03-19T21:41:08.555Z,52.33
2018-03-19T21:43:37.469Z,52.53
2018-03-19T21:46:07.318Z,53.57
2018-03-19T21:48:36.502Z,52.40
2018-03-19T21:51:06.417Z,52.71
2018-03-19T21:53:35.280Z,52.95
2018-03-19T21:56:05.130Z,52.55
2018-03-19T21:58:34.064Z,52.64
2018-03-19T22:01:05.197Z,52.60
2018-03-19T22:03:34.056Z,52.72
2018-03-19T22:06:03.949Z,52.45
2018-03-19T22:08:33.367Z,52.94
2018-03-19T22:11:03.502Z,52.61
2018-03-19T22:13:32.392Z,52.49
2018-03-19T22:16:03.063Z,52.73
2018-03-19T22:18:31.939Z,52.65
2018-03-19T22:21:00.795Z,52.93
2018-03-19T22:23:29.704Z,52.68
2018-03-19T22:25:58.550Z,52.79
2018-03-19T22:28:27.435Z,53.00
2018-03-19T22:30:56.711Z,53.02
2018-03-19T22:33:25.669Z,53.35
2018-03-19T22:35:55.048Z,53.11
2018-03-19T22:38:24.500Z,54.06
2018-03-19T22:43:23.499Z,55.06
2018-03-19T22:45:53.378Z,55.34
2018-03-19T22:48:22.343Z,55.46
2018-03-19T22:50:52.562Z,54.83
2018-03-19T22:53:21.518Z,54.53
2018-03-19T22:55:50.346Z,54.80
2018-03-19T22:58:20.681Z,54.48
2018-03-19T23:00:49.644Z,54.05
2018-03-19T23:03:18.491Z,54.98
2018-03-19T23:05:48.883Z,55.20
2018-03-19T23:08:17.731Z,54.94
2018-03-19T23:10:46.699Z,55.53
2018-03-19T23:13:15.964Z,55.96
2018-03-19T23:15:44.954Z,56.81
2018-03-19T23:18:13.844Z,57.00
2018-03-19T23:20:42.924Z,56.47
2018-03-19T23:23:11.884Z,56.54
2018-03-19T23:25:41.146Z,56.32
2018-03-19T23:28:10.132Z,56.05
2018-03-19T23:30:39.152Z,56.28
2018-03-19T23:33:08.457Z,56.15
2018-03-19T23:35:37.410Z,56.13
2018-03-19T23:38:07.252Z,56.45
2018-03-19T23:40:37.819Z,56.55
2018-03-19T23:43:06.808Z,56.36
2018-03-19T23:45:35.778Z,56.43
2018-03-19T23:48:05.825Z,56.74
2018-03-19T23:50:34.814Z,56.89
2018-03-19T23:53:04.270Z,56.16
2018-03-19T23:55:33.434Z,56.67
2018-03-19T23:58:04.185Z,56.15
